sensor_id;sensor_type;location;lat;lon;timestamp;P1;durP1;ratioP1;P2;durP2;ratioP2
43154;SDS011;34212;51.018;13.586;2023-08-21T00:05:58;16.65;;;7.72;;
43154;SDS011;34212;51.018;13.586;2023-08-21T00:16:01;11.05;;;7.20;;
43154;SDS011;34212;51.018;13.586;2023-08-21T00:26:04;12.32;;;9.38;;
43154;SDS011;34212;51.018;13.586;2023-08-21T00:36:07;18.08;;;9.57;;
43154;SDS011;34212;51.018;13.586;2023-08-21T00:46:10;10.70;;;9.23;;
43154;SDS011;34212;51.018;13.586;2023-08-21T00:51:13;7.78;;;6.82;;
43154;SDS011;34212;51.018;13.586;2023-08-21T00:56:17;10.90;;;8.80;;
43154;SDS011;34212;51.018;13.586;2023-08-21T01:01:19;18.98;;;8.98;;
43154;SDS011;34212;51.018;13.586;2023-08-21T01:06:26;12.38;;;8.48;;
43154;SDS011;34212;51.018;13.586;2023-08-21T01:11:35;15.02;;;7.68;;
43154;SDS011;34212;51.018;13.586;2023-08-21T01:16:45;9.20;;;7.13;;
43154;SDS011;34212;51.018;13.586;2023-08-21T01:21:49;10.05;;;7.28;;
43154;SDS011;34212;51.018;13.586;2023-08-21T01:26:51;14.95;;;8.18;;
43154;SDS011;34212;51.018;13.586;2023-08-21T01:32:06;10.05;;;7.50;;
43154;SDS011;34212;51.018;13.586;2023-08-21T01:37:12;8.45;;;7.30;;
43154;SDS011;34212;51.018;13.586;2023-08-21T01:42:14;18.85;;;6.97;;
43154;SDS011;34212;51.018;13.586;2023-08-21T01:52:20;14.50;;;6.60;;
43154;SDS011;34212;51.018;13.586;2023-08-21T01:57:22;12.77;;;7.35;;
43154;SDS011;34212;51.018;13.586;2023-08-21T02:02:24;8.10;;;7.00;;
43154;SDS011;34212;51.018;13.586;2023-08-21T02:12:28;10.05;;;6.93;;
43154;SDS011;34212;51.018;13.586;2023-08-21T02:22:31;10.93;;;6.38;;
43154;SDS011;34212;51.018;13.586;2023-08-21T02:32:34;13.65;;;6.97;;
43154;SDS011;34212;51.018;13.586;2023-08-21T02:37:36;13.88;;;6.93;;
43154;SDS011;34212;51.018;13.586;2023-08-21T02:42:40;10.20;;;7.10;;
43154;SDS011;34212;51.018;13.586;2023-08-21T02:52:43;9.13;;;7.28;;
43154;SDS011;34212;51.018;13.586;2023-08-21T03:02:46;10.55;;;7.53;;
43154;SDS011;34212;51.018;13.586;2023-08-21T03:07:48;12.55;;;7.18;;
43154;SDS011;34212;51.018;13.586;2023-08-21T03:12:49;9.25;;;6.72;;
43154;SDS011;34212;51.018;13.586;2023-08-21T03:22:52;8.65;;;7.15;;
43154;SDS011;34212;51.018;13.586;2023-08-21T03:32:56;8.32;;;6.75;;
43154;SDS011;34212;51.018;13.586;2023-08-21T03:37:58;12.15;;;7.55;;
43154;SDS011;34212;51.018;13.586;2023-08-21T03:43:05;27.80;;;6.70;;
43154;SDS011;34212;51.018;13.586;2023-08-21T03:53:08;12.27;;;6.43;;
43154;SDS011;34212;51.018;13.586;2023-08-21T03:58:10;7.32;;;5.90;;
43154;SDS011;34212;51.018;13.586;2023-08-21T04:08:13;10.40;;;6.78;;
43154;SDS011;34212;51.018;13.586;2023-08-21T04:13:15;9.13;;;6.18;;
43154;SDS011;34212;51.018;13.586;2023-08-21T04:18:17;9.75;;;6.40;;
43154;SDS011;34212;51.018;13.586;2023-08-21T04:23:38;7.75;;;6.07;;
43154;SDS011;34212;51.018;13.586;2023-08-21T04:28:40;6.45;;;5.80;;
43154;SDS011;34212;51.018;13.586;2023-08-21T04:38:43;10.90;;;5.75;;
43154;SDS011;34212;51.018;13.586;2023-08-21T04:43:45;7.72;;;5.63;;
43154;SDS011;34212;51.018;13.586;2023-08-21T04:48:47;7.70;;;5.18;;
43154;SDS011;34212;51.018;13.586;2023-08-21T04:53:48;16.20;;;6.25;;
43154;SDS011;34212;51.018;13.586;2023-08-21T04:58:53;12.73;;;6.40;;
43154;SDS011;34212;51.018;13.586;2023-08-21T05:03:56;9.93;;;5.57;;
43154;SDS011;34212;51.018;13.586;2023-08-21T05:08:58;8.77;;;5.75;;
43154;SDS011;34212;51.018;13.586;2023-08-21T05:14:00;10.23;;;6.20;;
43154;SDS011;34212;51.018;13.586;2023-08-21T05:19:03;8.07;;;6.05;;
43154;SDS011;34212;51.018;13.586;2023-08-21T05:29:09;9.18;;;6.68;;
43154;SDS011;34212;51.018;13.586;2023-08-21T05:34:10;7.88;;;6.55;;
43154;SDS011;34212;51.018;13.586;2023-08-21T05:44:14;8.82;;;7.25;;
43154;SDS011;34212;51.018;13.586;2023-08-21T05:54:17;12.57;;;10.77;;
43154;SDS011;34212;51.018;13.586;2023-08-21T05:59:31;12.23;;;10.65;;
43154;SDS011;34212;51.018;13.586;2023-08-21T06:04:36;16.67;;;13.90;;
43154;SDS011;34212;51.018;13.586;2023-08-21T06:09:39;12.63;;;6.80;;
43154;SDS011;34212;51.018;13.586;2023-08-21T06:14:42;14.50;;;9.05;;
43154;SDS011;34212;51.018;13.586;2023-08-21T06:24:45;12.82;;;10.38;;
43154;SDS011;34212;51.018;13.586;2023-08-21T06:29:50;17.92;;;16.33;;
43154;SDS011;34212;51.018;13.586;2023-08-21T06:39:53;13.45;;;7.07;;
43154;SDS011;34212;51.018;13.586;2023-08-21T06:44:55;9.05;;;7.57;;
43154;SDS011;34212;51.018;13.586;2023-08-21T06:54:58;11.27;;;8.82;;
43154;SDS011;34212;51.018;13.586;2023-08-21T07:05:01;11.32;;;5.40;;
43154;SDS011;34212;51.018;13.586;2023-08-21T07:10:04;11.73;;;5.72;;
43154;SDS011;34212;51.018;13.586;2023-08-21T07:15:06;6.80;;;5.15;;
43154;SDS011;34212;51.018;13.586;2023-08-21T07:20:08;9.82;;;5.72;;
43154;SDS011;34212;51.018;13.586;2023-08-21T07:25:09;8.55;;;6.75;;
43154;SDS011;34212;51.018;13.586;2023-08-21T07:30:11;13.30;;;8.80;;
43154;SDS011;34212;51.018;13.586;2023-08-21T07:35:13;14.35;;;7.47;;
43154;SDS011;34212;51.018;13.586;2023-08-21T07:40:14;8.65;;;6.20;;
43154;SDS011;34212;51.018;13.586;2023-08-21T07:45:16;17.50;;;6.60;;
43154;SDS011;34212;51.018;13.586;2023-08-21T07:50:17;13.90;;;6.63;;
43154;SDS011;34212;51.018;13.586;2023-08-21T07:55:19;12.45;;;6.32;;
43154;SDS011;34212;51.018;13.586;2023-08-21T08:05:22;10.65;;;6.15;;
43154;SDS011;34212;51.018;13.586;2023-08-21T08:10:24;19.65;;;7.38;;
43154;SDS011;34212;51.018;13.586;2023-08-21T08:15:25;8.13;;;6.40;;
43154;SDS011;34212;51.018;13.586;2023-08-21T08:20:27;12.30;;;7.57;;
43154;SDS011;34212;51.018;13.586;2023-08-21T08:25:29;7.95;;;6.45;;
43154;SDS011;34212;51.018;13.586;2023-08-21T08:30:30;9.13;;;7.00;;
43154;SDS011;34212;51.018;13.586;2023-08-21T08:35:32;10.60;;;6.97;;
43154;SDS011;34212;51.018;13.586;2023-08-21T08:40:33;7.75;;;6.68;;
43154;SDS011;34212;51.018;13.586;2023-08-21T08:45:39;7.47;;;6.65;;
43154;SDS011;34212;51.018;13.586;2023-08-21T08:50:42;10.40;;;6.05;;
43154;SDS011;34212;51.018;13.586;2023-08-21T08:55:44;8.52;;;6.22;;
43154;SDS011;34212;51.018;13.586;2023-08-21T09:00:46;7.53;;;5.82;;
43154;SDS011;34212;51.018;13.586;2023-08-21T09:05:48;7.88;;;6.10;;
43154;SDS011;34212;51.018;13.586;2023-08-21T09:10:49;8.10;;;5.90;;
43154;SDS011;34212;51.018;13.586;2023-08-21T09:15:54;9.77;;;5.90;;
43154;SDS011;34212;51.018;13.586;2023-08-21T09:21:01;9.75;;;5.22;;
43154;SDS011;34212;51.018;13.586;2023-08-21T09:26:03;8.75;;;5.57;;
43154;SDS011;34212;51.018;13.586;2023-08-21T09:31:05;18.50;;;5.90;;
43154;SDS011;34212;51.018;13.586;2023-08-21T09:36:09;9.05;;;5.00;;
43154;SDS011;34212;51.018;13.586;2023-08-21T09:41:11;9.18;;;4.82;;
43154;SDS011;34212;51.018;13.586;2023-08-21T09:46:16;18.05;;;4.75;;
43154;SDS011;34212;51.018;13.586;2023-08-21T09:51:18;5.63;;;4.55;;
43154;SDS011;34212;51.018;13.586;2023-08-21T09:56:20;5.82;;;4.50;;
43154;SDS011;34212;51.018;13.586;2023-08-21T10:01:22;5.63;;;4.10;;
43154;SDS011;34212;51.018;13.586;2023-08-21T10:06:24;7.70;;;4.55;;
43154;SDS011;34212;51.018;13.586;2023-08-21T10:11:27;8.95;;;4.57;;
43154;SDS011;34212;51.018;13.586;2023-08-21T10:16:29;6.85;;;5.20;;
43154;SDS011;34212;51.018;13.586;2023-08-21T10:21:34;7.45;;;3.70;;
43154;SDS011;34212;51.018;13.586;2023-08-21T10:26:38;5.80;;;4.30;;
43154;SDS011;34212;51.018;13.586;2023-08-21T10:31:41;4.30;;;3.80;;
43154;SDS011;34212;51.018;13.586;2023-08-21T10:42:03;9.57;;;4.60;;
43154;SDS011;34212;51.018;13.586;2023-08-21T10:47:14;5.05;;;3.42;;
43154;SDS011;34212;51.018;13.586;2023-08-21T10:52:23;5.78;;;3.65;;
43154;SDS011;34212;51.018;13.586;2023-08-21T10:57:27;5.70;;;3.60;;
43154;SDS011;34212;51.018;13.586;2023-08-21T11:02:31;5.95;;;4.07;;
43154;SDS011;34212;51.018;13.586;2023-08-21T11:07:36;4.22;;;3.70;;
43154;SDS011;34212;51.018;13.586;2023-08-21T11:12:53;6.18;;;4.40;;
43154;SDS011;34212;51.018;13.586;2023-08-21T11:18:01;10.00;;;4.38;;
43154;SDS011;34212;51.018;13.586;2023-08-21T11:23:04;8.32;;;4.38;;
43154;SDS011;34212;51.018;13.586;2023-08-21T11:28:09;9.65;;;4.25;;
43154;SDS011;34212;51.018;13.586;2023-08-21T11:33:11;9.05;;;4.20;;
43154;SDS011;34212;51.018;13.586;2023-08-21T11:38:18;6.78;;;4.40;;
43154;SDS011;34212;51.018;13.586;2023-08-21T11:43:21;5.50;;;4.25;;
43154;SDS011;34212;51.018;13.586;2023-08-21T11:48:25;5.03;;;4.47;;
43154;SDS011;34212;51.018;13.586;2023-08-21T11:58:44;6.55;;;4.80;;
43154;SDS011;34212;51.018;13.586;2023-08-21T12:03:46;10.95;;;4.60;;
43154;SDS011;34212;51.018;13.586;2023-08-21T12:08:56;5.13;;;4.63;;
43154;SDS011;34212;51.018;13.586;2023-08-21T12:13:58;4.50;;;4.05;;
43154;SDS011;34212;51.018;13.586;2023-08-21T12:18:59;10.55;;;4.72;;
43154;SDS011;34212;51.018;13.586;2023-08-21T12:24:01;7.10;;;3.95;;
43154;SDS011;34212;51.018;13.586;2023-08-21T12:29:02;5.47;;;3.78;;
43154;SDS011;34212;51.018;13.586;2023-08-21T12:34:04;8.15;;;4.50;;
43154;SDS011;34212;51.018;13.586;2023-08-21T12:39:05;6.88;;;4.25;;
43154;SDS011;34212;51.018;13.586;2023-08-21T12:44:07;5.68;;;4.00;;
43154;SDS011;34212;51.018;13.586;2023-08-21T12:49:10;18.20;;;4.85;;
43154;SDS011;34212;51.018;13.586;2023-08-21T12:54:11;5.90;;;4.20;;
43154;SDS011;34212;51.018;13.586;2023-08-21T12:59:13;10.43;;;4.40;;
43154;SDS011;34212;51.018;13.586;2023-08-21T13:04:17;7.00;;;4.10;;
43154;SDS011;34212;51.018;13.586;2023-08-21T13:09:19;10.20;;;4.20;;
43154;SDS011;34212;51.018;13.586;2023-08-21T13:14:20;7.05;;;4.90;;
43154;SDS011;34212;51.018;13.586;2023-08-21T13:19:22;9.27;;;4.28;;
43154;SDS011;34212;51.018;13.586;2023-08-21T13:24:23;6.43;;;4.30;;
43154;SDS011;34212;51.018;13.586;2023-08-21T13:29:25;8.15;;;4.30;;
43154;SDS011;34212;51.018;13.586;2023-08-21T13:34:27;12.18;;;4.10;;
43154;SDS011;34212;51.018;13.586;2023-08-21T13:39:28;5.40;;;3.80;;
43154;SDS011;34212;51.018;13.586;2023-08-21T13:44:30;4.85;;;3.70;;
43154;SDS011;34212;51.018;13.586;2023-08-21T13:49:34;5.18;;;3.63;;
43154;SDS011;34212;51.018;13.586;2023-08-21T13:54:36;5.22;;;3.45;;
43154;SDS011;34212;51.018;13.586;2023-08-21T13:59:38;13.60;;;4.13;;
43154;SDS011;34212;51.018;13.586;2023-08-21T14:04:39;8.07;;;3.90;;
43154;SDS011;34212;51.018;13.586;2023-08-21T14:09:41;5.05;;;4.00;;
43154;SDS011;34212;51.018;13.586;2023-08-21T14:14:42;5.90;;;3.70;;
43154;SDS011;34212;51.018;13.586;2023-08-21T14:19:44;8.43;;;3.80;;
43154;SDS011;34212;51.018;13.586;2023-08-21T14:24:45;5.82;;;4.28;;
43154;SDS011;34212;51.018;13.586;2023-08-21T14:29:47;7.05;;;3.85;;
43154;SDS011;34212;51.018;13.586;2023-08-21T14:34:48;10.52;;;3.70;;
43154;SDS011;34212;51.018;13.586;2023-08-21T14:39:50;8.90;;;3.60;;
43154;SDS011;34212;51.018;13.586;2023-08-21T14:44:51;4.72;;;3.85;;
43154;SDS011;34212;51.018;13.586;2023-08-21T14:49:53;4.68;;;3.42;;
43154;SDS011;34212;51.018;13.586;2023-08-21T14:54:56;10.57;;;4.05;;
43154;SDS011;34212;51.018;13.586;2023-08-21T14:59:58;5.30;;;4.00;;
43154;SDS011;34212;51.018;13.586;2023-08-21T15:05:01;9.80;;;4.13;;
43154;SDS011;34212;51.018;13.586;2023-08-21T15:10:06;6.18;;;3.45;;
43154;SDS011;34212;51.018;13.586;2023-08-21T15:15:08;5.85;;;3.70;;
43154;SDS011;34212;51.018;13.586;2023-08-21T15:20:10;21.23;;;4.45;;
43154;SDS011;34212;51.018;13.586;2023-08-21T15:25:13;9.27;;;3.58;;
43154;SDS011;34212;51.018;13.586;2023-08-21T15:30:15;6.35;;;3.80;;
43154;SDS011;34212;51.018;13.586;2023-08-21T15:35:18;7.00;;;4.18;;
43154;SDS011;34212;51.018;13.586;2023-08-21T15:40:20;4.72;;;4.18;;
43154;SDS011;34212;51.018;13.586;2023-08-21T15:45:22;4.82;;;3.63;;
43154;SDS011;34212;51.018;13.586;2023-08-21T15:50:24;5.25;;;4.13;;
43154;SDS011;34212;51.018;13.586;2023-08-21T15:55:25;7.15;;;4.50;;
43154;SDS011;34212;51.018;13.586;2023-08-21T16:00:27;6.40;;;4.00;;
43154;SDS011;34212;51.018;13.586;2023-08-21T16:05:28;7.57;;;4.10;;
43154;SDS011;34212;51.018;13.586;2023-08-21T16:10:30;8.65;;;4.63;;
43154;SDS011;34212;51.018;13.586;2023-08-21T16:15:31;5.18;;;4.30;;
43154;SDS011;34212;51.018;13.586;2023-08-21T16:20:33;6.32;;;3.83;;
43154;SDS011;34212;51.018;13.586;2023-08-21T16:25:34;6.18;;;4.40;;
43154;SDS011;34212;51.018;13.586;2023-08-21T16:30:36;6.70;;;4.70;;
43154;SDS011;34212;51.018;13.586;2023-08-21T16:35:37;4.95;;;4.30;;
43154;SDS011;34212;51.018;13.586;2023-08-21T16:40:39;7.95;;;5.10;;
43154;SDS011;34212;51.018;13.586;2023-08-21T16:45:41;11.00;;;4.40;;
43154;SDS011;34212;51.018;13.586;2023-08-21T16:50:43;5.75;;;4.00;;
43154;SDS011;34212;51.018;13.586;2023-08-21T16:55:44;7.22;;;4.18;;
43154;SDS011;34212;51.018;13.586;2023-08-21T17:00:46;6.30;;;4.38;;
43154;SDS011;34212;51.018;13.586;2023-08-21T17:05:47;6.03;;;4.50;;
43154;SDS011;34212;51.018;13.586;2023-08-21T17:10:49;5.35;;;4.20;;
43154;SDS011;34212;51.018;13.586;2023-08-21T17:15:51;5.60;;;4.28;;
43154;SDS011;34212;51.018;13.586;2023-08-21T17:20:54;6.65;;;4.90;;
43154;SDS011;34212;51.018;13.586;2023-08-21T17:25:55;4.78;;;3.92;;
43154;SDS011;34212;51.018;13.586;2023-08-21T17:30:57;5.93;;;4.72;;
43154;SDS011;34212;51.018;13.586;2023-08-21T17:35:58;8.63;;;4.57;;
43154;SDS011;34212;51.018;13.586;2023-08-21T17:41:00;10.73;;;4.78;;
43154;SDS011;34212;51.018;13.586;2023-08-21T17:46:01;5.88;;;4.03;;
43154;SDS011;34212;51.018;13.586;2023-08-21T17:51:05;6.25;;;4.38;;
43154;SDS011;34212;51.018;13.586;2023-08-21T17:56:07;4.68;;;4.07;;
43154;SDS011;34212;51.018;13.586;2023-08-21T18:01:09;6.15;;;4.53;;
43154;SDS011;34212;51.018;13.586;2023-08-21T18:06:11;7.25;;;3.90;;
43154;SDS011;34212;51.018;13.586;2023-08-21T18:11:12;6.35;;;3.95;;
43154;SDS011;34212;51.018;13.586;2023-08-21T18:16:14;4.88;;;3.90;;
43154;SDS011;34212;51.018;13.586;2023-08-21T18:21:17;4.28;;;3.78;;
43154;SDS011;34212;51.018;13.586;2023-08-21T18:26:21;4.72;;;3.78;;
43154;SDS011;34212;51.018;13.586;2023-08-21T18:31:22;4.65;;;3.78;;
43154;SDS011;34212;51.018;13.586;2023-08-21T18:36:27;8.00;;;4.53;;
43154;SDS011;34212;51.018;13.586;2023-08-21T18:41:35;4.30;;;3.90;;
43154;SDS011;34212;51.018;13.586;2023-08-21T18:46:36;6.88;;;4.95;;
43154;SDS011;34212;51.018;13.586;2023-08-21T18:51:38;6.47;;;4.50;;
43154;SDS011;34212;51.018;13.586;2023-08-21T18:56:39;5.43;;;4.10;;
43154;SDS011;34212;51.018;13.586;2023-08-21T19:01:41;5.30;;;3.85;;
43154;SDS011;34212;51.018;13.586;2023-08-21T19:06:43;4.93;;;4.10;;
43154;SDS011;34212;51.018;13.586;2023-08-21T19:12:04;5.90;;;4.63;;
43154;SDS011;34212;51.018;13.586;2023-08-21T19:17:06;5.13;;;4.15;;
43154;SDS011;34212;51.018;13.586;2023-08-21T19:22:07;6.53;;;4.50;;
43154;SDS011;34212;51.018;13.586;2023-08-21T19:27:09;5.22;;;3.85;;
43154;SDS011;34212;51.018;13.586;2023-08-21T19:32:11;4.85;;;4.22;;
43154;SDS011;34212;51.018;13.586;2023-08-21T19:37:13;7.88;;;4.93;;
43154;SDS011;34212;51.018;13.586;2023-08-21T19:42:15;7.60;;;4.72;;
43154;SDS011;34212;51.018;13.586;2023-08-21T19:47:16;5.72;;;4.47;;
43154;SDS011;34212;51.018;13.586;2023-08-21T19:52:18;8.43;;;4.85;;
43154;SDS011;34212;51.018;13.586;2023-08-21T19:57:19;5.22;;;4.63;;
43154;SDS011;34212;51.018;13.586;2023-08-21T20:02:21;7.28;;;4.72;;
43154;SDS011;34212;51.018;13.586;2023-08-21T20:07:23;8.07;;;4.90;;
43154;SDS011;34212;51.018;13.586;2023-08-21T20:12:24;5.65;;;4.90;;
43154;SDS011;34212;51.018;13.586;2023-08-21T20:17:26;8.02;;;5.20;;
43154;SDS011;34212;51.018;13.586;2023-08-21T20:22:29;7.50;;;5.13;;
43154;SDS011;34212;51.018;13.586;2023-08-21T20:27:31;6.80;;;4.90;;
43154;SDS011;34212;51.018;13.586;2023-08-21T20:32:33;5.80;;;4.85;;
43154;SDS011;34212;51.018;13.586;2023-08-21T20:37:35;8.68;;;5.63;;
43154;SDS011;34212;51.018;13.586;2023-08-21T20:42:39;7.10;;;5.60;;
43154;SDS011;34212;51.018;13.586;2023-08-21T20:47:43;9.27;;;5.30;;
43154;SDS011;34212;51.018;13.586;2023-08-21T20:52:45;6.93;;;5.72;;
43154;SDS011;34212;51.018;13.586;2023-08-21T20:57:48;8.68;;;6.40;;
43154;SDS011;34212;51.018;13.586;2023-08-21T21:02:51;7.93;;;5.20;;
43154;SDS011;34212;51.018;13.586;2023-08-21T21:07:54;6.40;;;5.45;;
43154;SDS011;34212;51.018;13.586;2023-08-21T21:17:57;7.28;;;6.05;;
43154;SDS011;34212;51.018;13.586;2023-08-21T21:22:59;10.25;;;6.90;;
43154;SDS011;34212;51.018;13.586;2023-08-21T21:28:01;14.20;;;6.60;;
43154;SDS011;34212;51.018;13.586;2023-08-21T21:33:03;10.90;;;7.10;;
43154;SDS011;34212;51.018;13.586;2023-08-21T21:38:05;9.93;;;7.15;;
43154;SDS011;34212;51.018;13.586;2023-08-21T21:48:07;10.32;;;6.65;;
43154;SDS011;34212;51.018;13.586;2023-08-21T21:53:09;8.95;;;6.63;;
43154;SDS011;34212;51.018;13.586;2023-08-21T21:58:11;11.98;;;7.22;;
43154;SDS011;34212;51.018;13.586;2023-08-21T22:03:13;8.25;;;6.57;;
43154;SDS011;34212;51.018;13.586;2023-08-21T22:08:15;8.07;;;6.65;;
43154;SDS011;34212;51.018;13.586;2023-08-21T22:13:17;8.60;;;6.55;;
43154;SDS011;34212;51.018;13.586;2023-08-21T22:18:18;8.07;;;6.65;;
43154;SDS011;34212;51.018;13.586;2023-08-21T22:28:21;7.60;;;6.45;;
43154;SDS011;34212;51.018;13.586;2023-08-21T22:38:24;8.45;;;6.88;;
43154;SDS011;34212;51.018;13.586;2023-08-21T22:48:27;8.85;;;7.13;;
43154;SDS011;34212;51.018;13.586;2023-08-21T22:58:30;9.00;;;7.55;;
43154;SDS011;34212;51.018;13.586;2023-08-21T23:08:33;9.48;;;7.30;;
43154;SDS011;34212;51.018;13.586;2023-08-21T23:18:36;9.90;;;7.47;;
43154;SDS011;34212;51.018;13.586;2023-08-21T23:23:38;9.55;;;8.18;;
43154;SDS011;34212;51.018;13.586;2023-08-21T23:28:39;10.57;;;8.02;;
43154;SDS011;34212;51.018;13.586;2023-08-21T23:38:42;9.77;;;8.07;;
43154;SDS011;34212;51.018;13.586;2023-08-21T23:48:45;12.48;;;8.02;;
43154;SDS011;34212;51.018;13.586;2023-08-21T23:53:47;11.80;;;8.70;;
43154;SDS011;34212;51.018;13.586;2023-08-21T23:58:48;11.82;;;7.85;;
